Time;durP1;ratioP1;P1;durP2;ratioP2;P2;SDS_P1;SDS_P2;PMS_P1;PMS_P2;Temp;Humidity;BMP_temperature;BMP_pressure;BME280_temperature;BME280_humidity;BME280_pressure;Samples;Min_cycle;Max_cycle;Signal;HPM_P1;HPM_P2
2021/01/12 00:00:46;;;;;;;28.63;14.38;;;-0.70;77.60;;;;;;5043840;28;20025;-87
2021/01/12 00:03:12;;;;;;;30.45;14.20;;;-0.70;77.70;;;;;;5041149;28;20311;-87
2021/01/12 00:05:37;;;;;;;30.25;15.13;;;-0.70;77.80;;;;;;5037563;28;20029;-87
2021/01/12 00:08:07;;;;;;;29.73;15.65;;;-0.70;77.80;;;;;;5038302;28;20029;-87
2021/01/12 00:10:34;;;;;;;24.60;14.05;;;-0.70;77.80;;;;;;5038222;28;20030;-87
2021/01/12 00:12:59;;;;;;;27.55;14.30;;;-0.70;77.70;;;;;;5036726;28;20113;-87
2021/01/12 00:15:25;;;;;;;26.13;13.30;;;-0.70;77.70;;;;;;5036935;28;20018;-87
2021/01/12 00:17:51;;;;;;;32.30;15.32;;;-0.70;77.90;;;;;;5036382;28;20052;-88
2021/01/12 00:20:18;;;;;;;25.80;14.45;;;-0.70;77.90;;;;;;5036576;28;20045;-87
2021/01/12 00:22:44;;;;;;;33.97;14.88;;;-0.70;78.10;;;;;;5036108;28;20029;-88
2021/01/12 00:25:09;;;;;;;29.38;13.50;;;-0.60;78.20;;;;;;5033171;28;20091;-88
2021/01/12 00:27:35;;;;;;;28.80;14.55;;;-0.60;78.00;;;;;;5025329;28;20026;-88
2021/01/12 00:30:01;;;;;;;28.75;13.88;;;-0.50;77.80;;;;;;5033261;28;20706;-88
2021/01/12 00:32:28;;;;;;;28.90;13.65;;;-0.60;77.70;;;;;;5037305;28;20171;-88
2021/01/12 00:34:55;;;;;;;25.42;13.95;;;-0.60;77.80;;;;;;5032852;28;20522;-88
2021/01/12 00:37:23;;;;;;;29.52;14.48;;;-0.50;78.10;;;;;;5033564;28;20114;-88
2021/01/12 00:39:49;;;;;;;24.83;12.88;;;-0.50;78.10;;;;;;5033396;28;20116;-88
2021/01/12 00:42:15;;;;;;;27.40;14.10;;;-0.50;78.00;;;;;;5031974;28;20132;-91
2021/01/12 00:44:40;;;;;;;27.45;14.25;;;-0.50;78.00;;;;;;5033899;28;20110;-88
2021/01/12 00:47:07;;;;;;;28.02;13.68;;;-0.40;78.10;;;;;;5032009;28;20045;-88
2021/01/12 00:49:33;;;;;;;28.30;14.40;;;-0.40;78.20;;;;;;5034521;28;20032;-88
2021/01/12 00:51:59;;;;;;;27.90;14.52;;;-0.40;78.10;;;;;;5032870;28;20028;-88
2021/01/12 00:54:25;;;;;;;26.98;13.45;;;-0.40;78.00;;;;;;5032648;28;20025;-88
2021/01/12 00:56:52;;;;;;;25.35;14.00;;;-0.40;78.00;;;;;;5030448;28;20128;-88
2021/01/12 00:59:18;;;;;;;29.38;14.32;;;-0.40;78.00;;;;;;5032974;28;20466;-88
2021/01/12 01:01:44;;;;;;;26.00;12.73;;;-0.40;78.00;;;;;;5032947;28;20026;-88
2021/01/12 01:04:13;;;;;;;27.67;14.15;;;-0.40;78.20;;;;;;5033755;28;20507;-88
2021/01/12 01:06:39;;;;;;;22.23;12.25;;;-0.40;78.20;;;;;;5036798;28;20045;-88
2021/01/12 01:09:04;;;;;;;27.98;13.38;;;-0.30;78.20;;;;;;5047320;28;20032;-88
2021/01/12 01:11:30;;;;;;;26.13;12.90;;;-0.30;78.20;;;;;;5042240;28;20059;-88
2021/01/12 01:13:57;;;;;;;22.88;12.25;;;-0.30;78.10;;;;;;5032842;28;20467;-88
2021/01/12 01:16:33;;;;;;;23.83;12.93;;;-0.30;78.10;;;;;;5032821;28;20099;-88
2021/01/12 01:18:59;;;;;;;23.73;12.45;;;-0.20;78.20;;;;;;5032921;28;20025;-88
2021/01/12 01:21:25;;;;;;;26.77;13.52;;;-0.20;78.10;;;;;;5032595;28;20099;-88
2021/01/12 01:23:51;;;;;;;22.98;12.48;;;-0.20;78.00;;;;;;5031641;28;20496;-89
2021/01/12 01:26:21;;;;;;;24.33;13.18;;;-0.20;78.00;;;;;;5031429;28;20025;-88
2021/01/12 01:28:47;;;;;;;23.15;12.00;;;-0.20;78.60;;;;;;5030784;28;20091;-88
2021/01/12 01:31:13;;;;;;;26.42;12.07;;;-0.20;78.10;;;;;;5031718;28;20030;-88
2021/01/12 01:33:38;;;;;;;24.25;13.57;;;-0.20;78.10;;;;;;5033322;28;20111;-88
2021/01/12 01:36:05;;;;;;;30.05;12.38;;;-0.20;78.20;;;;;;5032067;28;20479;-89
2021/01/12 01:38:31;;;;;;;21.05;11.68;;;-0.20;78.10;;;;;;5032667;28;20083;-89
2021/01/12 01:40:57;;;;;;;23.25;12.57;;;-0.20;78.30;;;;;;5032041;28;20025;-88
2021/01/12 01:43:23;;;;;;;26.25;13.02;;;-0.10;78.40;;;;;;5031945;28;20036;-88
2021/01/12 01:45:50;;;;;;;26.33;14.45;;;-0.20;78.40;;;;;;5031157;28;20120;-88
2021/01/12 01:48:16;;;;;;;27.67;13.95;;;-0.20;78.50;;;;;;5032406;28;20037;-88
2021/01/12 01:50:42;;;;;;;26.08;13.15;;;-0.10;78.60;;;;;;5032040;28;20022;-88
2021/01/12 01:53:10;;;;;;;28.25;13.13;;;-0.20;78.70;;;;;;5025735;28;20434;-88
2021/01/12 01:55:37;;;;;;;31.77;13.75;;;-0.20;79.30;;;;;;5031605;28;20052;-88
2021/01/12 01:58:05;;;;;;;27.75;13.63;;;-0.20;79.00;;;;;;5030538;28;20025;-89
2021/01/12 02:00:32;;;;;;;24.75;13.25;;;-0.20;79.00;;;;;;5026598;28;20033;-88
2021/01/12 02:03:15;;;;;;;27.17;13.38;;;-0.30;79.10;;;;;;5012632;28;20480;-88
2021/01/12 02:05:50;;;;;;;28.10;13.65;;;-0.30;79.30;;;;;;5030811;28;20037;-88
2021/01/12 02:08:24;;;;;;;20.92;11.65;;;-0.30;79.30;;;;;;5031591;28;20033;-88
2021/01/12 02:10:59;;;;;;;27.30;12.95;;;-0.30;79.40;;;;;;5032253;28;20021;-88
2021/01/12 02:13:28;;;;;;;24.73;11.98;;;-0.30;79.60;;;;;;5029127;28;20030;-88
2021/01/12 02:15:58;;;;;;;23.23;13.02;;;-0.30;79.50;;;;;;5031618;28;20033;-88
2021/01/12 02:18:24;;;;;;;26.33;14.27;;;-0.20;79.70;;;;;;5032855;28;20041;-88
2021/01/12 02:20:51;;;;;;;22.58;12.57;;;-0.20;79.70;;;;;;5031577;28;20040;-88
2021/01/12 02:23:22;;;;;;;26.38;13.73;;;-0.20;79.70;;;;;;5031430;28;20498;-88
2021/01/12 02:25:50;;;;;;;23.50;13.85;;;-0.20;80.00;;;;;;5031296;28;20108;-88
2021/01/12 02:28:17;;;;;;;21.13;11.63;;;-0.20;80.00;;;;;;5031262;28;20072;-88
2021/01/12 02:30:44;;;;;;;24.17;13.05;;;-0.20;80.00;;;;;;5031929;28;20018;-88
2021/01/12 02:33:09;;;;;;;26.90;14.55;;;-0.20;80.10;;;;;;5031824;28;20025;-88
2021/01/12 02:35:39;;;;;;;23.85;12.80;;;-0.20;80.20;;;;;;5031135;28;20510;-88
2021/01/12 02:38:05;;;;;;;25.88;12.65;;;-0.10;80.40;;;;;;5035442;28;20049;-90
2021/01/12 02:40:32;;;;;;;21.27;12.13;;;-0.20;80.40;;;;;;5038066;28;20056;-88
2021/01/12 02:42:58;;;;;;;25.10;13.45;;;-0.10;80.60;;;;;;5037992;28;20034;-87
2021/01/12 02:45:24;;;;;;;22.00;11.38;;;-0.10;80.50;;;;;;5030273;28;20395;-88
2021/01/12 02:47:50;;;;;;;22.00;12.30;;;-0.10;80.60;;;;;;5033067;28;20037;-88
2021/01/12 02:50:16;;;;;;;23.27;12.38;;;-0.10;80.70;;;;;;5036105;28;20532;-88
2021/01/12 02:52:42;;;;;;;23.10;11.88;;;-0.10;80.70;;;;;;5035767;28;20507;-88
2021/01/12 02:55:13;;;;;;;24.15;13.35;;;-0.10;80.80;;;;;;5034786;28;20384;-88
2021/01/12 02:57:39;;;;;;;23.50;13.88;;;0.00;80.90;;;;;;5026411;28;20426;-88
2021/01/12 03:00:14;;;;;;;19.98;11.20;;;0.00;81.00;;;;;;5034885;28;20120;-88
2021/01/12 03:02:39;;;;;;;22.70;12.85;;;0.00;80.90;;;;;;5034957;28;20067;-88
2021/01/12 03:05:07;;;;;;;20.85;11.80;;;0.00;81.00;;;;;;5034336;28;20040;-88
2021/01/12 03:07:33;;;;;;;22.33;11.25;;;0.00;81.00;;;;;;5034827;28;20040;-88
2021/01/12 03:09:59;;;;;;;20.90;11.80;;;0.10;81.00;;;;;;5034837;28;20053;-88
2021/01/12 03:12:25;;;;;;;23.60;13.20;;;0.10;81.00;;;;;;5033692;28;20434;-88
2021/01/12 03:14:51;;;;;;;22.10;12.80;;;0.10;81.10;;;;;;5033994;28;20040;-88
2021/01/12 03:17:18;;;;;;;21.85;12.35;;;0.10;81.00;;;;;;5033759;28;20345;-88
2021/01/12 03:19:44;;;;;;;24.48;13.32;;;0.10;81.30;;;;;;5034457;28;20184;-88
2021/01/12 03:22:10;;;;;;;22.50;12.02;;;0.10;81.40;;;;;;5034152;28;20037;-88
2021/01/12 03:24:36;;;;;;;20.48;11.00;;;0.10;81.30;;;;;;5033791;28;20029;-88
2021/01/12 03:27:02;;;;;;;22.00;12.18;;;0.10;81.40;;;;;;5027374;28;20511;-88
2021/01/12 03:29:28;;;;;;;20.48;11.77;;;0.10;81.50;;;;;;5034503;28;20033;-88
2021/01/12 03:31:53;;;;;;;19.33;10.63;;;0.20;81.60;;;;;;5034666;28;20021;-88
2021/01/12 03:34:19;;;;;;;19.27;11.75;;;0.20;81.50;;;;;;5033599;28;20028;-88
2021/01/12 03:36:44;;;;;;;17.63;9.57;;;0.20;81.50;;;;;;5034259;28;20037;-88
2021/01/12 03:39:10;;;;;;;19.13;10.50;;;0.20;81.50;;;;;;5033868;28;20033;-88
2021/01/12 03:41:36;;;;;;;19.08;10.07;;;0.30;81.60;;;;;;5033311;28;20395;-88
2021/01/12 03:44:01;;;;;;;18.23;9.70;;;0.30;81.50;;;;;;5033814;28;20030;-88
2021/01/12 03:46:27;;;;;;;16.45;9.30;;;0.30;81.40;;;;;;5033899;28;20061;-88
2021/01/12 03:48:53;;;;;;;18.95;9.00;;;0.40;81.50;;;;;;5033630;28;20487;-88
2021/01/12 03:51:24;;;;;;;14.90;9.60;;;0.40;81.40;;;;;;5033936;28;20079;-89
2021/01/12 03:53:50;;;;;;;17.02;9.35;;;0.50;81.60;;;;;;5033702;28;20040;-88
2021/01/12 03:56:15;;;;;;;15.98;8.93;;;0.50;81.50;;;;;;5033208;28;20430;-88
2021/01/12 03:58:41;;;;;;;15.18;9.48;;;0.50;81.40;;;;;;5035269;28;20389;-88
2021/01/12 04:01:07;;;;;;;13.05;7.78;;;0.60;81.40;;;;;;5033163;28;20033;-88
2021/01/12 04:03:33;;;;;;;14.82;7.50;;;0.70;81.40;;;;;;5033472;28;20396;-88
2021/01/12 04:06:09;;;;;;;14.80;8.13;;;0.70;81.40;;;;;;5034037;28;20025;-88
2021/01/12 04:08:35;;;;;;;12.00;7.43;;;0.70;81.30;;;;;;5033861;28;20531;-88
2021/01/12 04:11:01;;;;;;;12.10;7.30;;;0.80;81.20;;;;;;5033889;28;20053;-88
2021/01/12 04:13:27;;;;;;;12.40;7.43;;;0.80;81.20;;;;;;5032737;28;20115;-88
2021/01/12 04:15:52;;;;;;;9.20;6.38;;;0.90;81.20;;;;;;5033381;28;20087;-88
2021/01/12 04:18:18;;;;;;;9.85;6.60;;;0.90;81.10;;;;;;5033710;28;20033;-87
2021/01/12 04:20:43;;;;;;;11.15;6.28;;;0.90;81.00;;;;;;5033845;28;20021;-89
2021/01/12 04:23:09;;;;;;;13.43;6.38;;;1.00;81.00;;;;;;5033440;28;20085;-88
2021/01/12 04:25:38;;;;;;;10.52;6.47;;;1.00;80.90;;;;;;5033263;28;20067;-88
2021/01/12 04:28:05;;;;;;;9.30;5.63;;;1.00;80.90;;;;;;5033390;28;20029;-88
2021/01/12 04:30:30;;;;;;;10.07;6.25;;;1.00;80.80;;;;;;5033665;28;20029;-88
2021/01/12 04:32:56;;;;;;;9.95;6.35;;;1.10;80.90;;;;;;5033179;28;20021;-88
2021/01/12 04:35:22;;;;;;;10.00;6.05;;;1.10;80.80;;;;;;5029821;28;20095;-88
2021/01/12 04:37:48;;;;;;;9.55;5.82;;;1.20;80.80;;;;;;5020416;28;20026;-88
2021/01/12 04:40:13;;;;;;;8.63;5.53;;;1.20;80.70;;;;;;5031872;28;20029;-88
2021/01/12 04:42:42;;;;;;;9.88;6.10;;;1.20;80.80;;;;;;5033051;28;20033;-88
2021/01/12 04:45:08;;;;;;;11.45;5.80;;;1.30;80.70;;;;;;5033989;28;20030;-88
2021/01/12 04:47:33;;;;;;;8.18;5.43;;;1.30;80.60;;;;;;5041375;28;20442;-88
2021/01/12 04:50:06;;;;;;;8.30;5.20;;;1.30;80.50;;;;;;5039693;28;20112;-88
2021/01/12 04:52:49;;;;;;;9.07;5.18;;;1.30;80.50;;;;;;5039068;28;20029;-88
2021/01/12 04:55:15;;;;;;;;;;;1.40;80.60;;;;;;5036285;28;20021;-88
2021/01/12 04:57:41;;;;;;;8.07;5.43;;;1.40;80.50;;;;;;5026833;28;19913;-88
2021/01/12 05:00:27;;;;;;;9.77;5.18;;;1.40;80.30;;;;;;5032497;28;20499;-88
2021/01/12 05:03:06;;;;;;;10.20;5.63;;;1.40;80.20;;;;;;5025855;28;20025;-88
2021/01/12 05:05:39;;;;;;;8.57;5.30;;;1.40;80.20;;;;;;5013946;28;20034;-88
2021/01/12 05:08:07;;;;;;;8.18;5.40;;;1.40;80.10;;;;;;5025726;28;20033;-88
2021/01/12 05:10:36;;;;;;;8.98;5.18;;;1.50;80.20;;;;;;5032724;28;20028;-89
2021/01/12 05:13:06;;;;;;;10.85;5.60;;;1.50;80.30;;;;;;5031652;28;20055;-88
2021/01/12 05:15:32;;;;;;;7.45;5.00;;;1.50;80.30;;;;;;5031503;28;20376;-88
2021/01/12 05:18:00;;;;;;;6.90;4.93;;;1.50;80.20;;;;;;5031701;28;20124;-89
2021/01/12 05:20:26;;;;;;;6.97;4.65;;;1.50;80.20;;;;;;5032776;28;20030;-88
2021/01/12 05:23:09;;;;;;;7.15;4.53;;;1.50;80.10;;;;;;5032084;28;20120;-88
2021/01/12 05:25:41;;;;;;;;;;;1.50;80.20;;;;;;5033891;28;20037;-88
2021/01/12 05:28:10;;;;;;;6.50;4.13;;;1.50;80.20;;;;;;5033577;28;19913;-88
2021/01/12 05:30:36;;;;;;;6.72;4.85;;;1.50;80.00;;;;;;5032392;28;20509;-88
2021/01/12 05:33:02;;;;;;;6.97;4.32;;;1.50;80.10;;;;;;5032215;28;20022;-88
2021/01/12 05:35:32;;;;;;;7.07;4.47;;;1.50;80.20;;;;;;5032648;28;20018;-88
2021/01/12 05:38:09;;;;;;;7.10;4.70;;;1.60;80.40;;;;;;5032251;28;20026;-88
2021/01/12 05:40:38;;;;;;;6.95;4.45;;;1.60;80.40;;;;;;5032213;28;20029;-88
2021/01/12 05:43:13;;;;;;;6.22;4.47;;;1.60;80.60;;;;;;5032494;28;20025;-88
2021/01/12 05:45:43;;;;;;;10.30;4.40;;;1.60;80.90;;;;;;5031972;28;20029;-87
2021/01/12 05:48:10;;;;;;;10.43;5.57;;;1.60;81.00;;;;;;5030945;28;20057;-88
2021/01/12 05:50:37;;;;;;;8.23;5.57;;;1.50;81.50;;;;;;5031902;28;20547;-88
2021/01/12 05:53:14;;;;;;;9.55;5.68;;;1.50;82.20;;;;;;5031679;28;20136;-88
2021/01/12 05:55:42;;;;;;;11.13;6.72;;;1.50;82.60;;;;;;5071680;22;20285;-89
2021/01/12 05:58:19;;;;;;;8.63;5.95;;;1.40;83.00;;;;;;5031328;28;20117;-89
2021/01/12 06:00:50;;;;;;;11.00;6.00;;;1.40;83.60;;;;;;5017156;28;20018;-91
2021/01/12 06:03:17;;;;;;;14.23;7.40;;;1.30;83.70;;;;;;5015912;28;20507;-90
2021/01/12 06:05:48;;;;;;;10.77;5.90;;;1.30;84.10;;;;;;5013567;28;20026;-90
2021/01/12 06:08:15;;;;;;;11.82;6.93;;;1.20;84.10;;;;;;5010698;28;20417;-89
2021/01/12 06:10:45;;;;;;;13.00;6.65;;;1.30;84.80;;;;;;5027767;28;20022;-90
2021/01/12 06:13:18;;;;;;;10.57;6.10;;;1.20;84.80;;;;;;5014368;28;20468;-90
2021/01/12 06:15:48;;;;;;;12.73;7.03;;;1.20;85.00;;;;;;5015615;28;20410;-90
2021/01/12 06:18:15;;;;;;;12.98;7.35;;;1.20;85.10;;;;;;5015343;28;20033;-90
2021/01/12 06:21:11;;;;;;;14.20;6.72;;;1.20;85.30;;;;;;5013482;28;20026;-90
2021/01/12 06:23:44;;;;;;;14.50;7.90;;;1.20;85.30;;;;;;5033069;28;20447;-90
2021/01/12 06:26:12;;;;;;;14.82;8.45;;;1.20;85.90;;;;;;5018522;28;20041;-90
2021/01/12 06:28:37;;;;;;;11.80;7.15;;;1.20;86.00;;;;;;5018416;28;20033;-91
2021/01/12 06:31:04;;;;;;;18.55;9.35;;;1.20;85.90;;;;;;5016719;28;20392;-91
2021/01/12 06:33:32;;;;;;;18.65;9.02;;;1.20;86.40;;;;;;5033100;28;20026;-91
2021/01/12 06:36:00;;;;;;;19.25;9.20;;;1.20;86.70;;;;;;5016210;28;20039;-91
2021/01/12 06:38:28;;;;;;;17.00;8.95;;;1.20;86.70;;;;;;5016473;28;20068;-90
2021/01/12 06:40:57;;;;;;;20.70;9.23;;;1.20;86.80;;;;;;5016958;28;20113;-91
2021/01/12 06:43:25;;;;;;;17.52;9.05;;;1.20;87.00;;;;;;5020801;28;20025;-90
2021/01/12 06:45:53;;;;;;;22.05;9.35;;;1.20;87.50;;;;;;5024135;28;20026;-89
2021/01/12 06:48:19;;;;;;;19.95;9.98;;;1.20;87.90;;;;;;5015406;28;20026;-89
2021/01/12 06:50:46;;;;;;;20.80;10.05;;;1.20;88.10;;;;;;5016572;28;20080;-90
2021/01/12 06:53:15;;;;;;;15.85;6.95;;;1.20;88.20;;;;;;5017164;28;20084;-91
2021/01/12 06:55:41;;;;;;;23.17;10.50;;;1.20;88.20;;;;;;5016054;28;20484;-90
2021/01/12 06:58:10;;;;;;;19.58;8.73;;;1.20;88.50;;;;;;5018924;28;20093;-90
2021/01/12 07:00:37;;;;;;;20.67;9.38;;;1.20;88.80;;;;;;5015330;28;20412;-89
2021/01/12 07:03:04;;;;;;;20.83;9.25;;;1.30;89.00;;;;;;5015731;28;20116;-90
2021/01/12 07:05:44;;;;;;;18.38;8.30;;;1.30;89.40;;;;;;5016371;28;20030;-89
2021/01/12 07:08:13;;;;;;;18.13;9.27;;;1.30;89.40;;;;;;5016981;28;20113;-89
2021/01/12 07:10:44;;;;;;;18.75;9.57;;;1.30;89.50;;;;;;5029044;28;20093;-89
2021/01/12 07:13:10;;;;;;;18.25;7.90;;;1.30;89.70;;;;;;5057957;28;20013;-89
2021/01/12 07:15:44;;;;;;;15.80;7.57;;;1.40;89.60;;;;;;5040956;28;20048;-90
2021/01/12 07:18:10;;;;;;;19.52;10.23;;;1.40;89.70;;;;;;5013724;28;20068;-89
2021/01/12 07:20:37;;;;;;;21.55;8.77;;;1.40;89.90;;;;;;5015568;28;20080;-90
2021/01/12 07:23:13;;;;;;;18.77;9.85;;;1.40;89.90;;;;;;5015866;28;20088;-89
2021/01/12 07:25:46;;;;;;;18.75;9.00;;;1.40;90.00;;;;;;5016094;28;20034;-90
2021/01/12 07:28:14;;;;;;;16.10;7.50;;;1.40;90.00;;;;;;5011405;28;20554;-90
2021/01/12 07:30:41;;;;;;;18.90;8.85;;;1.40;90.00;;;;;;5027760;28;20169;-90
2021/01/12 07:33:17;;;;;;;13.88;6.43;;;1.40;90.10;;;;;;5013163;28;20018;-89
2021/01/12 07:35:47;;;;;;;16.35;7.30;;;1.40;90.00;;;;;;5013857;28;20045;-89
2021/01/12 07:38:24;;;;;;;17.70;7.55;;;1.40;90.10;;;;;;5015873;28;20057;-89
2021/01/12 07:40:51;;;;;;;20.77;8.82;;;1.50;90.20;;;;;;5016520;28;20502;-90
2021/01/12 07:43:20;;;;;;;22.15;8.45;;;1.50;90.20;;;;;;5015253;28;20022;-89
2021/01/12 07:45:46;;;;;;;21.25;8.55;;;1.50;90.30;;;;;;5016242;28;20026;-90
2021/01/12 07:48:13;;;;;;;21.85;10.35;;;1.50;90.20;;;;;;5020177;28;20057;-90
2021/01/12 07:50:43;;;;;;;21.35;9.18;;;1.40;90.20;;;;;;5016213;28;20332;-90
2021/01/12 08:00:53;;;;;;;18.38;8.43;;;1.40;90.30;;;;;;4994193;28;20049;-90
2021/01/12 08:03:27;;;;;;;22.65;8.65;;;1.50;90.20;;;;;;4980301;28;20484;-89
2021/01/12 08:05:59;;;;;;;23.33;10.32;;;1.40;90.30;;;;;;4991673;28;20480;-90
2021/01/12 08:08:30;;;;;;;24.52;8.93;;;1.50;90.40;;;;;;5018841;28;20100;-91
2021/01/12 08:10:56;;;;;;;16.23;7.00;;;1.50;90.50;;;;;;5018967;28;20025;-91
2021/01/12 08:13:23;;;;;;;22.10;8.80;;;1.50;90.40;;;;;;5017744;28;20095;-90
2021/01/12 08:15:59;;;;;;;19.40;7.90;;;1.50;90.40;;;;;;5019006;28;20030;-91
2021/01/12 08:18:25;;;;;;;20.50;9.13;;;1.50;90.50;;;;;;5017865;28;20033;-91
2021/01/12 08:20:55;;;;;;;22.75;9.43;;;1.50;90.50;;;;;;5014082;28;20030;-90
2021/01/12 08:23:21;;;;;;;21.08;7.22;;;1.50;90.50;;;;;;5016234;28;20030;-91
2021/01/12 08:25:48;;;;;;;18.25;7.30;;;1.50;90.50;;;;;;5015510;28;20029;-90
2021/01/12 08:28:15;;;;;;;17.67;7.10;;;1.50;90.50;;;;;;5016325;28;20181;-90
2021/01/12 08:30:42;;;;;;;23.95;9.35;;;1.60;90.60;;;;;;5016621;28;20037;-90
2021/01/12 08:33:13;;;;;;;14.60;6.82;;;1.60;90.70;;;;;;5017125;28;20230;-90
2021/01/12 08:35:44;;;;;;;19.00;7.57;;;1.50;90.60;;;;;;5015988;28;20029;-90
2021/01/12 08:38:13;;;;;;;15.95;6.00;;;1.50;90.60;;;;;;5018422;28;20025;-91
2021/01/12 08:40:40;;;;;;;14.38;5.72;;;1.50;90.60;;;;;;4996990;28;20056;-90
2021/01/12 08:43:19;;;;;;;23.23;7.45;;;1.60;90.60;;;;;;5009771;28;20025;-91
2021/01/12 08:45:48;;;;;;;22.05;7.90;;;1.60;90.50;;;;;;5017336;28;20117;-90
2021/01/12 08:48:18;;;;;;;20.95;7.97;;;1.60;90.60;;;;;;5015876;28;20022;-90
2021/01/12 08:50:46;;;;;;;19.98;7.93;;;1.60;90.60;;;;;;5016004;28;20399;-90
2021/01/12 08:53:17;;;;;;;16.55;7.05;;;1.60;90.60;;;;;;5034087;28;20026;-90
2021/01/12 08:55:45;;;;;;;21.85;7.90;;;1.50;90.60;;;;;;5016793;28;20365;-91
2021/01/12 08:58:11;;;;;;;27.00;9.35;;;1.60;90.60;;;;;;5016517;28;20512;-90
2021/01/12 09:00:41;;;;;;;19.90;7.85;;;1.60;90.70;;;;;;5017053;28;20068;-91
2021/01/12 09:03:08;;;;;;;20.58;6.53;;;1.60;90.70;;;;;;5016177;28;20033;-90
2021/01/12 09:05:41;;;;;;;21.85;8.02;;;1.50;90.70;;;;;;5014999;28;20508;-91
2021/01/12 09:08:09;;;;;;;19.55;7.47;;;1.50;90.70;;;;;;5016152;28;20030;-90
2021/01/12 09:10:39;;;;;;;23.98;8.30;;;1.50;90.70;;;;;;5021410;28;20426;-90
2021/01/12 09:13:06;;;;;;;24.13;7.50;;;1.50;90.90;;;;;;5021957;28;20022;-90
2021/01/12 09:15:33;;;;;;;20.77;7.30;;;1.50;90.80;;;;;;5017131;28;20045;-91
2021/01/12 09:18:06;;;;;;;26.13;8.95;;;1.50;90.80;;;;;;5031571;28;20060;-91
2021/01/12 09:20:39;;;;;;;22.58;7.55;;;1.50;90.90;;;;;;5028377;28;20499;-91
2021/01/12 09:23:10;;;;;;;17.70;6.40;;;1.50;90.80;;;;;;5015190;28;20026;-91
2021/01/12 09:25:39;;;;;;;21.42;6.35;;;1.50;90.90;;;;;;5015302;28;20044;-90
2021/01/12 09:28:17;;;;;;;20.23;7.30;;;1.50;90.80;;;;;;5011519;28;20037;-89
2021/01/12 09:30:45;;;;;;;26.08;7.57;;;1.50;91.00;;;;;;5013214;28;20484;-89
2021/01/12 09:33:22;;;;;;;16.85;6.22;;;1.50;90.90;;;;;;5013553;28;20036;-91
2021/01/12 09:35:48;;;;;;;23.90;7.88;;;1.50;90.90;;;;;;5014300;28;20022;-90
2021/01/12 09:38:14;;;;;;;21.55;6.10;;;1.50;90.90;;;;;;5013730;28;20025;-89
2021/01/12 09:40:39;;;;;;;24.38;6.80;;;1.50;90.90;;;;;;5012910;28;20480;-90
2021/01/12 09:43:05;;;;;;;19.55;6.40;;;1.50;91.00;;;;;;5013226;28;20022;-89
2021/01/12 09:45:31;;;;;;;21.90;6.95;;;1.50;91.00;;;;;;5014245;28;20061;-90
2021/01/12 09:47:56;;;;;;;17.23;5.93;;;1.50;91.00;;;;;;5015031;28;20261;-90
2021/01/12 09:50:22;;;;;;;12.57;5.30;;;1.50;91.00;;;;;;5014643;28;20045;-90
2021/01/12 09:52:48;;;;;;;18.80;6.45;;;1.50;91.00;;;;;;5019854;28;20026;-89
2021/01/12 09:55:13;;;;;;;18.10;5.57;;;1.50;91.00;;;;;;5011460;28;20075;-90
2021/01/12 09:57:39;;;;;;;16.50;5.97;;;1.50;91.00;;;;;;5012923;28;20054;-90
2021/01/12 10:00:08;;;;;;;15.45;5.40;;;1.50;90.90;;;;;;5002716;28;20029;-90
2021/01/12 10:02:34;;;;;;;14.65;4.95;;;1.50;91.00;;;;;;5016497;28;20029;-90
2021/01/12 10:05:00;;;;;;;16.58;5.55;;;1.60;91.00;;;;;;5014212;28;20403;-89
2021/01/12 10:07:26;;;;;;;12.73;4.22;;;1.60;91.00;;;;;;5016842;28;20050;-90
2021/01/12 10:09:51;;;;;;;9.23;3.88;;;1.60;91.00;;;;;;5018090;28;20121;-89
2021/01/12 10:12:17;;;;;;;8.18;4.20;;;1.60;91.00;;;;;;5017817;28;20042;-89
2021/01/12 10:14:43;;;;;;;9.77;4.13;;;1.50;91.00;;;;;;5017766;28;20160;-88
2021/01/12 10:17:09;;;;;;;6.38;3.15;;;1.60;91.00;;;;;;5017952;28;20587;-90
2021/01/12 10:19:35;;;;;;;10.82;3.80;;;1.50;91.00;;;;;;5017668;28;20030;-90
2021/01/12 10:22:01;;;;;;;6.63;3.00;;;1.60;91.00;;;;;;5017703;28;20021;-89
2021/01/12 10:24:26;;;;;;;6.65;2.92;;;1.60;91.00;;;;;;5016662;28;20396;-89
2021/01/12 10:26:54;;;;;;;8.60;3.10;;;1.60;91.00;;;;;;5016934;28;20061;-89
2021/01/12 10:29:21;;;;;;;5.75;3.03;;;1.60;91.00;;;;;;5016843;28;20288;-90
2021/01/12 10:31:48;;;;;;;8.00;3.25;;;1.60;91.00;;;;;;5033478;28;20116;-91
2021/01/12 10:34:13;;;;;;;8.18;2.70;;;1.70;91.00;;;;;;5010642;28;20025;-90
2021/01/12 10:36:39;;;;;;;8.57;3.00;;;1.70;90.90;;;;;;5006260;28;20034;-89
2021/01/12 10:39:05;;;;;;;4.32;2.60;;;1.70;90.90;;;;;;5015494;28;20033;-89
2021/01/12 10:41:37;;;;;;;6.30;3.17;;;1.70;90.90;;;;;;5033464;28;20048;-89
2021/01/12 10:44:03;;;;;;;5.00;2.67;;;1.70;90.90;;;;;;5017061;28;20403;-90
2021/01/12 10:46:28;;;;;;;4.38;2.50;;;1.70;90.80;;;;;;5016913;28;20575;-90
2021/01/12 10:48:54;;;;;;;7.82;2.72;;;1.80;90.80;;;;;;5016173;28;20099;-89
2021/01/12 10:51:19;;;;;;;7.50;2.70;;;1.80;90.80;;;;;;5016796;28;20044;-89
2021/01/12 10:53:45;;;;;;;3.85;2.17;;;1.80;90.80;;;;;;5017225;28;20018;-88
2021/01/12 10:56:15;;;;;;;5.53;2.20;;;1.80;90.80;;;;;;5032945;28;20022;-90
2021/01/12 10:58:40;;;;;;;2.53;1.92;;;1.80;90.80;;;;;;5015962;28;20055;-89
2021/01/12 11:01:06;;;;;;;2.00;1.70;;;1.80;90.80;;;;;;5016620;28;20167;-90
2021/01/12 11:03:32;;;;;;;2.78;1.65;;;1.80;90.80;;;;;;5016370;28;20049;-90
2021/01/12 11:05:57;;;;;;;5.38;2.28;;;1.90;90.90;;;;;;5016398;28;20468;-90
2021/01/12 11:08:25;;;;;;;1.92;1.50;;;1.90;90.90;;;;;;5000163;28;20439;-88
2021/01/12 11:10:53;;;;;;;3.95;2.20;;;1.90;90.80;;;;;;5015789;28;20025;-88
2021/01/12 11:13:19;;;;;;;5.28;1.80;;;1.90;90.80;;;;;;5015974;28;20056;-88
2021/01/12 11:15:45;;;;;;;2.35;1.65;;;1.90;90.80;;;;;;5016103;28;20025;-89
2021/01/12 11:18:11;;;;;;;5.30;1.70;;;1.90;90.80;;;;;;5017790;28;20029;-89
2021/01/12 11:20:37;;;;;;;3.90;2.03;;;2.00;90.90;;;;;;5034815;28;20017;-88
2021/01/12 11:23:03;;;;;;;5.03;2.38;;;1.90;90.80;;;;;;5057793;28;20028;-89
2021/01/12 11:25:29;;;;;;;7.65;3.70;;;2.00;90.90;;;;;;5038875;28;20084;-88
2021/01/12 11:27:55;;;;;;;9.27;4.53;;;2.00;90.90;;;;;;5015843;28;20022;-88
2021/01/12 11:30:21;;;;;;;6.38;3.17;;;2.00;90.90;;;;;;5015878;28;20484;-88
2021/01/12 11:32:47;;;;;;;1.70;1.55;;;2.00;90.90;;;;;;5015477;28;20086;-89
2021/01/12 11:35:14;;;;;;;2.80;2.05;;;2.00;90.90;;;;;;5015286;28;20022;-88
2021/01/12 11:37:39;;;;;;;2.58;1.90;;;2.00;91.00;;;;;;5015465;28;20065;-88
2021/01/12 11:40:08;;;;;;;4.80;2.13;;;2.00;91.00;;;;;;5015706;28;20068;-88
2021/01/12 11:42:33;;;;;;;3.65;2.00;;;2.00;91.00;;;;;;5015825;28;20033;-88
2021/01/12 11:44:59;;;;;;;4.32;1.98;;;2.00;91.10;;;;;;5019962;28;20037;-89
2021/01/12 11:47:24;;;;;;;4.05;1.65;;;2.00;91.10;;;;;;5007752;28;20029;-89
2021/01/12 11:49:50;;;;;;;2.70;1.58;;;2.00;91.10;;;;;;5015169;28;20511;-89
2021/01/12 11:52:17;;;;;;;2.17;1.50;;;2.00;91.10;;;;;;5018223;28;20113;-88
2021/01/12 11:54:43;;;;;;;2.78;1.75;;;2.10;91.40;;;;;;5015436;28;20038;-88
2021/01/12 11:59:37;;;;;;;1.60;1.17;;;2.10;91.10;;;;;;5068167;28;20056;-70
2021/01/12 12:02:03;;;;;;;3.17;1.60;;;2.10;91.20;;;;;;5071676;28;20029;-70
2021/01/12 12:04:29;;;;;;;1.70;1.60;;;2.10;91.20;;;;;;5071440;28;20016;-70
2021/01/12 12:07:00;;;;;;;3.65;1.70;;;2.10;91.20;;;;;;5065800;28;20488;-71
2021/01/12 12:09:27;;;;;;;1.20;1.10;;;2.10;91.20;;;;;;5072009;28;20027;-70
2021/01/12 12:11:53;;;;;;;1.10;0.90;;;2.10;91.20;;;;;;5070218;28;20377;-71
2021/01/12 12:14:18;;;;;;;1.25;0.98;;;2.10;91.20;;;;;;5070370;28;20051;-71
2021/01/12 12:16:45;;;;;;;1.95;1.58;;;2.10;91.20;;;;;;5071522;28;20423;-71
2021/01/12 12:19:12;;;;;;;1.55;1.40;;;2.20;91.20;;;;;;5071917;28;20078;-70
2021/01/12 12:21:52;;;;;;;1.35;1.25;;;2.20;91.30;;;;;;5069486;28;20377;-71
2021/01/12 12:24:19;;;;;;;2.15;1.65;;;2.10;91.30;;;;;;5070883;28;20032;-71
2021/01/12 12:26:46;;;;;;;2.92;1.50;;;2.10;91.30;;;;;;5070083;28;20043;-71
2021/01/12 12:29:11;;;;;;;6.18;2.78;;;2.10;91.30;;;;;;5069451;28;20025;-71
2021/01/12 12:31:37;;;;;;;1.50;1.35;;;2.10;91.30;;;;;;5070062;28;20469;-71
2021/01/12 12:34:04;;;;;;;6.32;3.03;;;2.10;91.30;;;;;;5070713;28;20077;-71
2021/01/12 12:36:30;;;;;;;1.80;1.60;;;2.10;91.40;;;;;;5063163;28;20519;-71
2021/01/12 12:38:56;;;;;;;2.72;1.95;;;2.10;91.30;;;;;;5071242;28;20074;-71
2021/01/12 12:41:22;;;;;;;2.80;2.22;;;2.20;91.40;;;;;;5069560;28;20032;-71
2021/01/12 12:43:47;;;;;;;3.92;2.35;;;2.10;91.40;;;;;;5071110;28;20109;-70
2021/01/12 12:46:15;;;;;;;4.20;3.20;;;2.10;91.40;;;;;;5070446;28;20102;-70
2021/01/12 12:48:41;;;;;;;6.82;3.58;;;2.20;91.40;;;;;;5070817;28;20033;-69
2021/01/12 12:51:09;;;;;;;4.82;3.00;;;2.20;91.40;;;;;;5069936;28;20025;-70
2021/01/12 12:53:36;;;;;;;2.85;2.35;;;2.20;91.40;;;;;;5071974;28;20044;-73
2021/01/12 12:56:02;;;;;;;3.33;2.70;;;2.20;91.40;;;;;;5071899;28;20029;-74
2021/01/12 12:58:31;;;;;;;3.03;2.78;;;2.20;91.40;;;;;;5070648;28;20020;-73